createdAt,value
2023-06-16T00:00:12.829Z,13.51
2023-06-16T00:01:56.835Z,13.53
2023-06-16T00:03:45.958Z,13.55
2023-06-16T00:05:25.549Z,13.59
2023-06-16T00:06:59.371Z,13.63
2023-06-16T00:08:33.146Z,13.63
2023-06-16T00:09:56.809Z,13.63
2023-06-16T00:11:37.911Z,13.65
2023-06-16T00:13:28.303Z,13.69
2023-06-16T00:15:14.532Z,13.71
2023-06-16T00:17:00.508Z,13.70
2023-06-16T00:18:29.710Z,13.72
2023-06-16T00:20:03.216Z,13.77
2023-06-16T00:21:47.218Z,13.86
2023-06-16T00:23:23.976Z,13.94
2023-06-16T00:25:08.937Z,14.02
2023-06-16T00:26:50.918Z,14.09
2023-06-16T00:28:15.511Z,14.14
2023-06-16T00:29:48.731Z,14.17
2023-06-16T00:31:34.424Z,14.19
2023-06-16T00:33:08.223Z,14.20
2023-06-16T00:34:44.146Z,14.22
2023-06-16T00:36:29.704Z,14.24
2023-06-16T00:37:59.417Z,14.20
2023-06-16T00:39:21.268Z,14.27
2023-06-16T00:40:45.330Z,14.27
2023-06-16T00:42:19.354Z,14.26
2023-06-16T00:43:55.103Z,14.24
2023-06-16T00:45:31.411Z,14.21
2023-06-16T00:47:18.492Z,14.18
2023-06-16T00:48:50.720Z,14.13
2023-06-16T00:50:12.697Z,14.12
2023-06-16T00:51:45.910Z,14.09
2023-06-16T00:53:22.291Z,14.09
2023-06-16T00:55:03.405Z,14.05
2023-06-16T00:56:38.389Z,14.02
2023-06-16T00:58:19.724Z,14.01
2023-06-16T01:00:05.353Z,14.00
2023-06-16T01:01:29.387Z,13.89
2023-06-16T01:03:23.643Z,13.91
2023-06-16T01:04:47.518Z,13.87
2023-06-16T01:06:22.575Z,13.84
2023-06-16T01:08:12.006Z,13.87
2023-06-16T01:10:05.435Z,13.85
2023-06-16T01:11:41.321Z,13.80
2023-06-16T01:13:14.982Z,13.80
2023-06-16T01:15:01.436Z,13.78
2023-06-16T01:16:36.501Z,13.73
2023-06-16T01:18:21.914Z,13.72
2023-06-16T01:19:57.554Z,13.69
2023-06-16T01:21:43.897Z,13.68
2023-06-16T01:23:29.430Z,13.65
2023-06-16T01:25:17.322Z,13.65
2023-06-16T01:26:58.930Z,13.65
2023-06-16T01:28:32.950Z,13.66
2023-06-16T01:30:20.582Z,13.65
2023-06-16T01:32:14.345Z,13.57
2023-06-16T01:33:47.528Z,13.63
2023-06-16T01:35:21.033Z,13.56
2023-06-16T01:36:54.331Z,13.59
2023-06-16T01:38:27.715Z,13.55
2023-06-16T01:40:03.030Z,13.52
2023-06-16T01:41:26.298Z,13.46
2023-06-16T01:42:52.650Z,13.42
2023-06-16T01:44:19.139Z,13.35
2023-06-16T01:46:04.367Z,13.28
2023-06-16T01:47:59.418Z,13.22
2023-06-16T01:49:36.388Z,13.15
2023-06-16T01:51:18.696Z,13.12
2023-06-16T01:52:42.715Z,13.09
2023-06-16T01:54:27.979Z,13.07
2023-06-16T01:56:13.306Z,13.06
2023-06-16T01:57:58.465Z,13.07
2023-06-16T01:59:22.776Z,13.07
2023-06-16T02:01:09.042Z,13.09
2023-06-16T02:02:49.971Z,13.13
2023-06-16T02:04:34.862Z,13.15
2023-06-16T02:06:08.456Z,13.16
2023-06-16T02:07:49.482Z,13.10
2023-06-16T02:09:23.365Z,13.17
2023-06-16T02:10:59.096Z,13.18
2023-06-16T02:12:53.364Z,13.16
2023-06-16T02:14:29.218Z,13.17
2023-06-16T02:16:06.881Z,13.18
2023-06-16T02:17:59.613Z,13.19
2023-06-16T02:19:41.154Z,13.11
2023-06-16T02:21:06.349Z,13.14
2023-06-16T02:22:32.719Z,13.12
2023-06-16T02:23:54.477Z,13.11
2023-06-16T02:25:30.022Z,13.10
2023-06-16T02:27:05.472Z,13.09
2023-06-16T02:28:50.657Z,13.03
2023-06-16T02:30:26.269Z,13.07
2023-06-16T02:31:52.459Z,13.07
2023-06-16T02:33:26.673Z,13.09
2023-06-16T02:35:17.127Z,13.10
2023-06-16T02:36:51.481Z,13.12
2023-06-16T02:38:27.598Z,13.13
2023-06-16T02:40:09.156Z,13.14
2023-06-16T02:41:52.391Z,13.14
2023-06-16T02:43:46.654Z,13.15
2023-06-16T02:45:20.126Z,13.18
2023-06-16T02:46:53.769Z,13.22
2023-06-16T02:48:39.494Z,13.22
2023-06-16T02:50:15.354Z,13.22
2023-06-16T02:51:56.303Z,13.23
2023-06-16T02:53:23.715Z,13.24
2023-06-16T02:54:57.098Z,13.23
2023-06-16T02:56:50.398Z,13.24
2023-06-16T02:58:26.950Z,13.25
2023-06-16T03:00:06.320Z,13.27
2023-06-16T03:01:45.838Z,13.26
2023-06-16T03:03:39.832Z,13.26
2023-06-16T03:05:36.462Z,13.28
2023-06-16T03:07:22.908Z,13.28
2023-06-16T03:08:46.889Z,13.27
2023-06-16T03:10:22.890Z,13.31
2023-06-16T03:12:11.345Z,13.31
2023-06-16T03:14:09.366Z,13.41
2023-06-16T03:15:33.494Z,13.48
2023-06-16T03:17:19.917Z,13.52
2023-06-16T03:18:51.071Z,13.56
2023-06-16T03:20:36.608Z,13.59
2023-06-16T03:22:17.944Z,13.63
2023-06-16T03:23:47.329Z,13.67
2023-06-16T03:25:33.931Z,13.73
2023-06-16T03:27:27.565Z,13.80
2023-06-16T03:31:23.569Z,13.81
2023-06-16T03:32:47.818Z,13.80
2023-06-16T03:34:32.829Z,13.81
2023-06-16T03:36:06.572Z,13.82
2023-06-16T03:37:53.468Z,13.87
2023-06-16T03:39:34.885Z,13.89
2023-06-16T03:41:10.885Z,13.93
2023-06-16T03:42:55.762Z,13.97
2023-06-16T03:44:29.047Z,14.03
2023-06-16T03:46:15.660Z,14.08
2023-06-16T03:47:49.054Z,14.12
2023-06-16T03:49:35.335Z,14.16
2023-06-16T03:54:41.324Z,14.34
2023-06-16T03:56:14.734Z,14.41
2023-06-16T03:57:45.042Z,14.46
2023-06-16T03:59:30.496Z,14.54
2023-06-16T04:01:16.823Z,14.60
2023-06-16T04:03:01.579Z,14.65
2023-06-16T04:04:26.654Z,14.69
2023-06-16T04:06:09.380Z,14.72
2023-06-16T04:07:45.281Z,14.77
2023-06-16T04:09:19.029Z,14.81
2023-06-16T04:10:44.730Z,14.87
2023-06-16T04:12:26.191Z,14.91
2023-06-16T04:14:06.676Z,14.96
2023-06-16T04:15:40.180Z,15.01
2023-06-16T04:17:09.458Z,15.06
2023-06-16T04:18:55.195Z,15.10
2023-06-16T04:20:22.223Z,15.14
2023-06-16T04:21:59.280Z,15.18
2023-06-16T04:23:38.498Z,15.24
2023-06-16T04:25:23.845Z,15.29
2023-06-16T04:27:11.068Z,15.35
2023-06-16T04:28:52.320Z,15.39
2023-06-16T04:30:23.915Z,15.43
2023-06-16T04:32:06.462Z,15.48
2023-06-16T04:33:54.350Z,15.51
2023-06-16T04:35:28.367Z,15.56
2023-06-16T04:37:10.054Z,15.63
2023-06-16T04:38:56.748Z,15.72
2023-06-16T04:40:32.304Z,15.78
2023-06-16T04:42:17.450Z,15.84
2023-06-16T04:43:40.524Z,15.88
2023-06-16T04:45:25.644Z,15.93
2023-06-16T04:47:13.876Z,16.01
2023-06-16T04:48:47.427Z,16.08
2023-06-16T04:50:21.240Z,16.15
2023-06-16T04:51:54.654Z,16.20
2023-06-16T04:53:40.053Z,16.27
2023-06-16T04:55:16.158Z,16.35
2023-06-16T04:56:56.812Z,16.41
2023-06-16T04:58:30.632Z,16.46
2023-06-16T05:00:04.596Z,16.51
2023-06-16T05:01:29.287Z,16.57
2023-06-16T05:02:58.067Z,16.60
2023-06-16T05:04:45.236Z,16.64
2023-06-16T05:06:32.676Z,16.68
2023-06-16T05:08:01.888Z,16.72
2023-06-16T05:09:47.416Z,16.80
2023-06-16T05:11:20.936Z,16.86
2023-06-16T05:12:52.549Z,16.88
2023-06-16T05:14:26.853Z,16.95
2023-06-16T05:16:09.370Z,16.97
2023-06-16T05:17:54.435Z,17.00
2023-06-16T05:19:34.813Z,17.05
2023-06-16T05:21:20.328Z,17.08
2023-06-16T05:23:15.423Z,17.15
2023-06-16T05:24:49.433Z,17.15
2023-06-16T05:26:23.575Z,17.27
2023-06-16T05:27:48.110Z,17.32
2023-06-16T05:29:22.011Z,17.38
2023-06-16T05:30:55.493Z,17.43
2023-06-16T05:32:17.603Z,17.50
2023-06-16T05:34:02.623Z,17.54
2023-06-16T05:35:52.418Z,17.60
2023-06-16T05:37:33.215Z,17.64
2023-06-16T05:39:28.484Z,17.67
2023-06-16T05:41:13.884Z,17.68
2023-06-16T05:42:45.767Z,17.76
2023-06-16T05:44:08.413Z,17.80
2023-06-16T05:45:45.092Z,17.83
2023-06-16T05:47:20.490Z,17.91
2023-06-16T05:49:02.678Z,18.00
2023-06-16T05:50:44.157Z,18.07
2023-06-16T05:52:25.226Z,18.14
2023-06-16T05:53:49.413Z,18.20
2023-06-16T05:55:15.758Z,18.28
2023-06-16T05:56:56.150Z,18.33
2023-06-16T05:58:29.762Z,18.37
2023-06-16T06:00:10.540Z,18.43
2023-06-16T06:01:55.566Z,18.44
2023-06-16T06:03:25.833Z,18.47
2023-06-16T06:04:59.701Z,18.53
2023-06-16T06:06:48.420Z,18.60
2023-06-16T06:08:12.312Z,18.65
2023-06-16T06:09:36.940Z,18.68
2023-06-16T06:11:22.102Z,18.70
2023-06-16T06:13:12.348Z,18.69
2023-06-16T06:14:54.456Z,18.72
2023-06-16T06:16:30.707Z,18.73
2023-06-16T06:17:56.950Z,18.79
2023-06-16T06:19:42.494Z,18.85
2023-06-16T06:21:09.040Z,18.86
2023-06-16T06:22:48.114Z,18.87
2023-06-16T06:24:34.400Z,18.88
2023-06-16T06:26:07.856Z,18.90
2023-06-16T06:27:41.487Z,18.95
2023-06-16T06:29:17.717Z,19.03
2023-06-16T06:31:04.245Z,19.12
2023-06-16T06:32:46.003Z,19.15
2023-06-16T06:34:17.869Z,19.16
2023-06-16T06:35:47.217Z,19.19
2023-06-16T06:37:33.217Z,19.25
2023-06-16T06:39:04.297Z,19.29
2023-06-16T06:40:37.643Z,19.31
2023-06-16T06:42:18.774Z,19.40
2023-06-16T06:43:46.357Z,19.47
2023-06-16T06:45:12.613Z,19.52
2023-06-16T06:46:53.524Z,19.56
2023-06-16T06:48:39.989Z,19.56
2023-06-16T06:50:14.942Z,19.56
2023-06-16T06:51:56.030Z,19.54
2023-06-16T06:53:29.200Z,19.51
2023-06-16T06:54:51.120Z,19.46
2023-06-16T06:56:15.791Z,19.41
2023-06-16T06:57:45.630Z,19.44
2023-06-16T06:59:14.940Z,19.44
2023-06-16T07:00:50.643Z,19.40
2023-06-16T07:02:26.752Z,19.30
2023-06-16T07:04:21.366Z,19.33
2023-06-16T07:05:50.425Z,19.29
2023-06-16T07:07:25.970Z,19.32
2023-06-16T07:09:03.380Z,19.31
2023-06-16T07:10:33.161Z,19.29
2023-06-16T07:12:26.843Z,19.29
2023-06-16T07:14:11.696Z,19.31
2023-06-16T07:15:52.763Z,19.48
2023-06-16T07:17:43.563Z,19.63
2023-06-16T07:19:16.881Z,19.75
2023-06-16T07:20:52.612Z,19.90
2023-06-16T07:22:34.745Z,20.09
2023-06-16T07:24:08.431Z,20.19
2023-06-16T07:25:45.250Z,20.28
2023-06-16T07:27:07.410Z,20.42
2023-06-16T07:28:31.553Z,20.48
2023-06-16T07:30:04.671Z,20.59
2023-06-16T07:31:28.752Z,20.69
2023-06-16T07:33:09.906Z,20.76
2023-06-16T07:34:46.251Z,20.77
2023-06-16T07:36:19.798Z,20.70
2023-06-16T07:37:53.371Z,20.72
2023-06-16T07:39:26.856Z,20.74
2023-06-16T07:41:21.395Z,20.76
2023-06-16T07:43:06.084Z,20.81
2023-06-16T07:44:51.014Z,20.77
2023-06-16T07:46:18.255Z,20.80
2023-06-16T07:47:47.350Z,20.76
2023-06-16T07:49:11.405Z,20.73
2023-06-16T07:50:35.864Z,20.69
2023-06-16T07:52:17.942Z,20.62
2023-06-16T07:53:44.244Z,20.77
2023-06-16T07:55:15.790Z,20.83
2023-06-16T07:57:09.352Z,20.88
2023-06-16T07:59:04.387Z,20.93
2023-06-16T08:00:45.176Z,21.11
2023-06-16T08:02:09.214Z,21.24
2023-06-16T08:03:50.258Z,21.39
2023-06-16T08:05:17.530Z,21.50
2023-06-16T08:07:02.488Z,21.54
2023-06-16T08:08:43.023Z,21.63
2023-06-16T08:10:32.306Z,21.55
2023-06-16T08:14:24.633Z,21.45
2023-06-16T08:16:09.497Z,21.64
2023-06-16T08:17:45.650Z,21.83
2023-06-16T08:19:31.231Z,22.04
2023-06-16T08:21:08.119Z,22.17
2023-06-16T08:22:33.399Z,22.20
2023-06-16T08:24:18.903Z,22.19
2023-06-16T08:26:03.474Z,22.19
2023-06-16T08:27:39.042Z,22.28
2023-06-16T08:29:24.873Z,22.25
2023-06-16T08:31:05.610Z,22.20
2023-06-16T08:32:47.034Z,22.32
2023-06-16T08:34:15.767Z,22.41
2023-06-16T08:36:01.576Z,22.45
2023-06-16T08:37:42.074Z,22.68
2023-06-16T08:39:06.599Z,22.90
2023-06-16T08:40:28.322Z,23.14
2023-06-16T08:42:01.868Z,23.39
2023-06-16T08:43:37.643Z,23.60
2023-06-16T08:45:13.734Z,23.77
2023-06-16T08:46:38.067Z,23.98
2023-06-16T08:48:20.011Z,24.18
2023-06-16T08:49:55.844Z,24.27
2023-06-16T08:51:29.488Z,24.12
2023-06-16T08:53:18.639Z,24.03
2023-06-16T08:55:00.423Z,23.96
2023-06-16T08:56:30.272Z,23.78
2023-06-16T08:57:59.345Z,23.74
2023-06-16T08:59:35.558Z,23.76
2023-06-16T09:01:11.023Z,23.80
2023-06-16T09:03:01.562Z,23.83
2023-06-16T09:04:42.412Z,23.87
2023-06-16T09:06:28.104Z,24.02
2023-06-16T09:08:04.800Z,24.12
2023-06-16T09:09:50.636Z,24.23
2023-06-16T09:11:36.089Z,24.31
2023-06-16T09:13:11.530Z,24.21
2023-06-16T09:15:01.360Z,24.10
2023-06-16T09:16:42.258Z,23.91
2023-06-16T09:18:27.931Z,23.72
2023-06-16T09:20:01.251Z,23.58
2023-06-16T09:21:43.566Z,23.44
2023-06-16T09:23:19.760Z,23.26
2023-06-16T09:25:14.394Z,23.15
2023-06-16T09:26:59.766Z,23.05
2023-06-16T09:28:33.765Z,22.95
2023-06-16T09:30:02.931Z,23.03
2023-06-16T09:31:47.921Z,23.05
2023-06-16T09:33:10.306Z,23.10
2023-06-16T09:34:49.849Z,23.11
2023-06-16T09:36:35.127Z,23.07
2023-06-16T09:37:57.778Z,23.00
